sensor_id;sensor_type;location;lat;lon;timestamp;P1;durP1;ratioP1;P2;durP2;ratioP2
70010;SDS011;59543;37.950;-122.338;2022-09-17T00:01:35;29.23;;;8.02;;
70010;SDS011;59543;37.950;-122.338;2022-09-17T00:04:01;30.70;;;7.97;;
70010;SDS011;59543;37.950;-122.338;2022-09-17T00:06:28;28.52;;;7.38;;
70010;SDS011;59543;37.950;-122.338;2022-09-17T00:08:55;27.25;;;7.60;;
70010;SDS011;59543;37.950;-122.338;2022-09-17T00:11:23;34.90;;;8.05;;
70010;SDS011;59543;37.950;-122.338;2022-09-17T00:13:52;30.38;;;7.57;;
70010;SDS011;59543;37.950;-122.338;2022-09-17T00:18:59;38.65;;;7.47;;
70010;SDS011;59543;37.950;-122.338;2022-09-17T00:21:25;32.80;;;7.93;;
70010;SDS011;59543;37.950;-122.338;2022-09-17T00:23:56;25.13;;;7.22;;
70010;SDS011;59543;37.950;-122.338;2022-09-17T00:26:24;38.20;;;7.00;;
70010;SDS011;59543;37.950;-122.338;2022-09-17T00:28:51;25.65;;;7.10;;
70010;SDS011;59543;37.950;-122.338;2022-09-17T00:31:19;30.20;;;7.63;;
70010;SDS011;59543;37.950;-122.338;2022-09-17T00:33:45;26.20;;;7.18;;
70010;SDS011;59543;37.950;-122.338;2022-09-17T00:36:12;27.77;;;7.47;;
70010;SDS011;59543;37.950;-122.338;2022-09-17T00:38:38;36.45;;;7.40;;
70010;SDS011;59543;37.950;-122.338;2022-09-17T00:41:05;32.30;;;7.57;;
70010;SDS011;59543;37.950;-122.338;2022-09-17T00:48:46;34.75;;;7.40;;
70010;SDS011;59543;37.950;-122.338;2022-09-17T00:51:13;33.25;;;7.32;;
70010;SDS011;59543;37.950;-122.338;2022-09-17T00:53:44;29.10;;;7.20;;
70010;SDS011;59543;37.950;-122.338;2022-09-17T00:56:14;33.85;;;7.25;;
70010;SDS011;59543;37.950;-122.338;2022-09-17T00:58:51;35.15;;;7.05;;
70010;SDS011;59543;37.950;-122.338;2022-09-17T01:01:19;33.25;;;7.70;;
70010;SDS011;59543;37.950;-122.338;2022-09-17T01:03:45;32.45;;;7.57;;
70010;SDS011;59543;37.950;-122.338;2022-09-17T01:06:28;32.05;;;7.85;;
70010;SDS011;59543;37.950;-122.338;2022-09-17T01:14:36;25.50;;;6.88;;
70010;SDS011;59543;37.950;-122.338;2022-09-17T01:23:02;29.65;;;7.03;;
70010;SDS011;59543;37.950;-122.338;2022-09-17T01:31:12;27.48;;;7.18;;
70010;SDS011;59543;37.950;-122.338;2022-09-17T01:39:39;30.67;;;7.47;;
70010;SDS011;59543;37.950;-122.338;2022-09-17T01:42:13;31.42;;;7.47;;
70010;SDS011;59543;37.950;-122.338;2022-09-17T01:45:00;30.20;;;7.72;;
70010;SDS011;59543;37.950;-122.338;2022-09-17T01:47:38;36.37;;;7.93;;
70010;SDS011;59543;37.950;-122.338;2022-09-17T01:50:18;33.97;;;8.32;;
70010;SDS011;59543;37.950;-122.338;2022-09-17T01:52:50;35.03;;;8.10;;
70010;SDS011;59543;37.950;-122.338;2022-09-17T01:55:21;40.80;;;7.85;;
70010;SDS011;59543;37.950;-122.338;2022-09-17T01:57:53;39.40;;;7.78;;
70010;SDS011;59543;37.950;-122.338;2022-09-17T02:00:24;37.42;;;8.13;;
70010;SDS011;59543;37.950;-122.338;2022-09-17T02:08:17;33.65;;;8.57;;
70010;SDS011;59543;37.950;-122.338;2022-09-17T02:10:48;35.17;;;8.20;;
70010;SDS011;59543;37.950;-122.338;2022-09-17T02:13:23;35.80;;;8.60;;
70010;SDS011;59543;37.950;-122.338;2022-09-17T02:15:57;32.20;;;9.00;;
70010;SDS011;59543;37.950;-122.338;2022-09-17T02:21:39;33.88;;;8.25;;
70010;SDS011;59543;37.950;-122.338;2022-09-17T02:24:24;45.70;;;8.65;;
70010;SDS011;59543;37.950;-122.338;2022-09-17T02:31:59;39.75;;;8.15;;
70010;SDS011;59543;37.950;-122.338;2022-09-17T02:34:26;38.15;;;8.32;;
70010;SDS011;59543;37.950;-122.338;2022-09-17T02:36:54;38.95;;;8.25;;
70010;SDS011;59543;37.950;-122.338;2022-09-17T02:39:21;35.67;;;8.07;;
70010;SDS011;59543;37.950;-122.338;2022-09-17T02:44:23;39.17;;;8.18;;
70010;SDS011;59543;37.950;-122.338;2022-09-17T02:50:09;46.20;;;9.40;;
70010;SDS011;59543;37.950;-122.338;2022-09-17T02:55:25;38.50;;;8.90;;
70010;SDS011;59543;37.950;-122.338;2022-09-17T03:01:03;45.90;;;8.68;;
70010;SDS011;59543;37.950;-122.338;2022-09-17T03:03:36;40.00;;;8.80;;
70010;SDS011;59543;37.950;-122.338;2022-09-17T03:06:05;41.63;;;8.57;;
70010;SDS011;59543;37.950;-122.338;2022-09-17T03:08:33;51.00;;;9.90;;
70010;SDS011;59543;37.950;-122.338;2022-09-17T03:11:04;42.85;;;8.77;;
70010;SDS011;59543;37.950;-122.338;2022-09-17T03:13:33;41.50;;;8.38;;
70010;SDS011;59543;37.950;-122.338;2022-09-17T03:16:03;35.67;;;9.00;;
70010;SDS011;59543;37.950;-122.338;2022-09-17T03:18:30;45.17;;;9.52;;
70010;SDS011;59543;37.950;-122.338;2022-09-17T03:20:57;40.70;;;8.52;;
70010;SDS011;59543;37.950;-122.338;2022-09-17T03:23:23;42.33;;;9.45;;
70010;SDS011;59543;37.950;-122.338;2022-09-17T03:25:52;43.55;;;9.25;;
70010;SDS011;59543;37.950;-122.338;2022-09-17T03:28:19;38.20;;;8.88;;
70010;SDS011;59543;37.950;-122.338;2022-09-17T03:30:45;40.13;;;9.02;;
70010;SDS011;59543;37.950;-122.338;2022-09-17T03:33:12;34.70;;;8.40;;
70010;SDS011;59543;37.950;-122.338;2022-09-17T03:35:42;35.15;;;7.88;;
70010;SDS011;59543;37.950;-122.338;2022-09-17T03:38:09;42.50;;;9.02;;
70010;SDS011;59543;37.950;-122.338;2022-09-17T03:40:35;37.05;;;8.13;;
70010;SDS011;59543;37.950;-122.338;2022-09-17T03:43:02;33.55;;;7.68;;
70010;SDS011;59543;37.950;-122.338;2022-09-17T03:45:28;40.08;;;9.57;;
70010;SDS011;59543;37.950;-122.338;2022-09-17T03:47:55;43.55;;;9.23;;
70010;SDS011;59543;37.950;-122.338;2022-09-17T03:50:21;44.03;;;8.30;;
70010;SDS011;59543;37.950;-122.338;2022-09-17T03:52:47;45.88;;;8.25;;
70010;SDS011;59543;37.950;-122.338;2022-09-17T03:55:13;41.25;;;8.85;;
70010;SDS011;59543;37.950;-122.338;2022-09-17T03:57:41;44.88;;;8.52;;
70010;SDS011;59543;37.950;-122.338;2022-09-17T04:00:08;41.58;;;8.93;;
70010;SDS011;59543;37.950;-122.338;2022-09-17T04:02:36;34.92;;;8.15;;
70010;SDS011;59543;37.950;-122.338;2022-09-17T04:05:03;43.72;;;8.30;;
70010;SDS011;59543;37.950;-122.338;2022-09-17T04:07:29;41.47;;;8.88;;
70010;SDS011;59543;37.950;-122.338;2022-09-17T04:09:55;44.60;;;9.48;;
70010;SDS011;59543;37.950;-122.338;2022-09-17T04:12:22;40.50;;;8.98;;
70010;SDS011;59543;37.950;-122.338;2022-09-17T04:14:50;39.90;;;9.10;;
70010;SDS011;59543;37.950;-122.338;2022-09-17T04:17:16;39.88;;;8.63;;
70010;SDS011;59543;37.950;-122.338;2022-09-17T04:19:44;39.22;;;8.52;;
70010;SDS011;59543;37.950;-122.338;2022-09-17T04:22:10;33.28;;;8.52;;
70010;SDS011;59543;37.950;-122.338;2022-09-17T04:24:36;42.13;;;9.05;;
70010;SDS011;59543;37.950;-122.338;2022-09-17T04:27:02;34.28;;;7.47;;
70010;SDS011;59543;37.950;-122.338;2022-09-17T04:29:29;39.00;;;8.68;;
70010;SDS011;59543;37.950;-122.338;2022-09-17T04:31:55;47.55;;;8.60;;
70010;SDS011;59543;37.950;-122.338;2022-09-17T04:34:21;40.40;;;8.40;;
70010;SDS011;59543;37.950;-122.338;2022-09-17T04:36:47;40.88;;;8.13;;
70010;SDS011;59543;37.950;-122.338;2022-09-17T04:39:13;41.80;;;8.82;;
70010;SDS011;59543;37.950;-122.338;2022-09-17T04:41:39;33.65;;;8.15;;
70010;SDS011;59543;37.950;-122.338;2022-09-17T04:44:06;42.53;;;7.97;;
70010;SDS011;59543;37.950;-122.338;2022-09-17T04:46:32;35.75;;;8.75;;
70010;SDS011;59543;37.950;-122.338;2022-09-17T04:48:58;32.65;;;8.15;;
70010;SDS011;59543;37.950;-122.338;2022-09-17T04:51:24;41.90;;;8.95;;
70010;SDS011;59543;37.950;-122.338;2022-09-17T04:53:50;47.75;;;9.32;;
70010;SDS011;59543;37.950;-122.338;2022-09-17T04:56:17;41.97;;;8.88;;
70010;SDS011;59543;37.950;-122.338;2022-09-17T04:58:44;39.45;;;8.40;;
70010;SDS011;59543;37.950;-122.338;2022-09-17T05:01:11;37.55;;;8.73;;
70010;SDS011;59543;37.950;-122.338;2022-09-17T05:03:38;38.28;;;8.15;;
70010;SDS011;59543;37.950;-122.338;2022-09-17T05:06:04;39.22;;;9.20;;
70010;SDS011;59543;37.950;-122.338;2022-09-17T05:08:31;48.78;;;8.68;;
70010;SDS011;59543;37.950;-122.338;2022-09-17T05:10:57;42.05;;;9.20;;
70010;SDS011;59543;37.950;-122.338;2022-09-17T05:13:23;34.05;;;8.05;;
70010;SDS011;59543;37.950;-122.338;2022-09-17T05:15:49;44.50;;;8.73;;
70010;SDS011;59543;37.950;-122.338;2022-09-17T05:18:15;30.20;;;8.07;;
70010;SDS011;59543;37.950;-122.338;2022-09-17T05:20:42;38.63;;;8.07;;
70010;SDS011;59543;37.950;-122.338;2022-09-17T05:23:08;40.28;;;9.68;;
70010;SDS011;59543;37.950;-122.338;2022-09-17T05:25:35;43.92;;;8.60;;
70010;SDS011;59543;37.950;-122.338;2022-09-17T05:28:01;38.10;;;8.85;;
70010;SDS011;59543;37.950;-122.338;2022-09-17T05:30:28;37.53;;;7.65;;
70010;SDS011;59543;37.950;-122.338;2022-09-17T05:33:01;37.75;;;8.55;;
70010;SDS011;59543;37.950;-122.338;2022-09-17T05:35:30;45.00;;;9.10;;
70010;SDS011;59543;37.950;-122.338;2022-09-17T05:37:57;41.88;;;8.90;;
70010;SDS011;59543;37.950;-122.338;2022-09-17T05:40:28;43.90;;;8.90;;
70010;SDS011;59543;37.950;-122.338;2022-09-17T05:43:02;46.00;;;9.10;;
70010;SDS011;59543;37.950;-122.338;2022-09-17T05:45:34;41.72;;;8.57;;
70010;SDS011;59543;37.950;-122.338;2022-09-17T05:48:02;40.42;;;9.15;;
70010;SDS011;59543;37.950;-122.338;2022-09-17T05:50:30;38.33;;;8.85;;
70010;SDS011;59543;37.950;-122.338;2022-09-17T05:53:02;46.38;;;8.73;;
70010;SDS011;59543;37.950;-122.338;2022-09-17T05:55:33;44.65;;;9.68;;
70010;SDS011;59543;37.950;-122.338;2022-09-17T05:57:59;47.60;;;9.15;;
70010;SDS011;59543;37.950;-122.338;2022-09-17T06:00:33;44.50;;;9.57;;
70010;SDS011;59543;37.950;-122.338;2022-09-17T06:02:59;38.95;;;9.32;;
70010;SDS011;59543;37.950;-122.338;2022-09-17T06:05:25;37.40;;;8.20;;
70010;SDS011;59543;37.950;-122.338;2022-09-17T06:07:51;44.58;;;9.20;;
70010;SDS011;59543;37.950;-122.338;2022-09-17T06:10:17;46.67;;;8.75;;
70010;SDS011;59543;37.950;-122.338;2022-09-17T06:12:43;42.17;;;8.55;;
70010;SDS011;59543;37.950;-122.338;2022-09-17T06:15:10;44.08;;;9.05;;
70010;SDS011;59543;37.950;-122.338;2022-09-17T06:17:39;45.95;;;8.95;;
70010;SDS011;59543;37.950;-122.338;2022-09-17T06:20:06;51.30;;;9.82;;
70010;SDS011;59543;37.950;-122.338;2022-09-17T06:22:33;34.78;;;8.70;;
70010;SDS011;59543;37.950;-122.338;2022-09-17T06:24:59;39.28;;;9.02;;
70010;SDS011;59543;37.950;-122.338;2022-09-17T06:27:30;41.20;;;9.25;;
70010;SDS011;59543;37.950;-122.338;2022-09-17T06:29:57;50.20;;;8.50;;
70010;SDS011;59543;37.950;-122.338;2022-09-17T06:32:23;42.40;;;9.23;;
70010;SDS011;59543;37.950;-122.338;2022-09-17T06:34:50;43.00;;;9.07;;
70010;SDS011;59543;37.950;-122.338;2022-09-17T06:37:17;51.22;;;9.60;;
70010;SDS011;59543;37.950;-122.338;2022-09-17T06:39:43;44.80;;;9.35;;
70010;SDS011;59543;37.950;-122.338;2022-09-17T06:42:10;47.40;;;9.73;;
70010;SDS011;59543;37.950;-122.338;2022-09-17T06:44:36;37.85;;;8.88;;
70010;SDS011;59543;37.950;-122.338;2022-09-17T06:47:02;39.67;;;9.15;;
70010;SDS011;59543;37.950;-122.338;2022-09-17T06:49:29;46.85;;;9.18;;
70010;SDS011;59543;37.950;-122.338;2022-09-17T06:51:55;40.30;;;9.07;;
70010;SDS011;59543;37.950;-122.338;2022-09-17T06:54:21;37.80;;;8.35;;
70010;SDS011;59543;37.950;-122.338;2022-09-17T06:56:47;42.92;;;8.43;;
70010;SDS011;59543;37.950;-122.338;2022-09-17T06:59:14;51.67;;;9.35;;
70010;SDS011;59543;37.950;-122.338;2022-09-17T07:01:40;50.05;;;9.45;;
70010;SDS011;59543;37.950;-122.338;2022-09-17T07:04:07;50.95;;;9.40;;
70010;SDS011;59543;37.950;-122.338;2022-09-17T07:06:33;39.78;;;8.75;;
70010;SDS011;59543;37.950;-122.338;2022-09-17T07:08:59;47.15;;;9.07;;
70010;SDS011;59543;37.950;-122.338;2022-09-17T07:11:25;42.15;;;9.30;;
70010;SDS011;59543;37.950;-122.338;2022-09-17T07:13:53;35.78;;;8.75;;
70010;SDS011;59543;37.950;-122.338;2022-09-17T07:16:20;44.42;;;8.98;;
70010;SDS011;59543;37.950;-122.338;2022-09-17T07:18:48;45.72;;;8.63;;
70010;SDS011;59543;37.950;-122.338;2022-09-17T07:21:14;38.08;;;8.63;;
70010;SDS011;59543;37.950;-122.338;2022-09-17T07:23:41;41.38;;;9.45;;
70010;SDS011;59543;37.950;-122.338;2022-09-17T07:26:09;46.80;;;9.93;;
70010;SDS011;59543;37.950;-122.338;2022-09-17T07:28:38;49.20;;;9.65;;
70010;SDS011;59543;37.950;-122.338;2022-09-17T07:31:05;48.65;;;10.02;;
70010;SDS011;59543;37.950;-122.338;2022-09-17T07:33:33;40.72;;;8.77;;
70010;SDS011;59543;37.950;-122.338;2022-09-17T07:36:01;45.00;;;9.57;;
70010;SDS011;59543;37.950;-122.338;2022-09-17T07:38:32;39.50;;;9.27;;
70010;SDS011;59543;37.950;-122.338;2022-09-17T07:41:00;43.35;;;9.75;;
70010;SDS011;59543;37.950;-122.338;2022-09-17T07:43:32;50.67;;;10.05;;
70010;SDS011;59543;37.950;-122.338;2022-09-17T07:45:59;43.28;;;10.07;;
70010;SDS011;59543;37.950;-122.338;2022-09-17T07:48:27;52.20;;;10.50;;
70010;SDS011;59543;37.950;-122.338;2022-09-17T07:50:54;59.25;;;10.70;;
70010;SDS011;59543;37.950;-122.338;2022-09-17T07:53:21;46.58;;;9.95;;
70010;SDS011;59543;37.950;-122.338;2022-09-17T07:55:51;48.17;;;9.38;;
70010;SDS011;59543;37.950;-122.338;2022-09-17T07:58:19;49.03;;;9.68;;
70010;SDS011;59543;37.950;-122.338;2022-09-17T08:00:46;48.92;;;10.32;;
70010;SDS011;59543;37.950;-122.338;2022-09-17T08:03:13;52.08;;;11.02;;
70010;SDS011;59543;37.950;-122.338;2022-09-17T08:05:40;51.80;;;10.98;;
70010;SDS011;59543;37.950;-122.338;2022-09-17T08:08:06;50.47;;;10.57;;
70010;SDS011;59543;37.950;-122.338;2022-09-17T08:10:32;43.75;;;9.90;;
70010;SDS011;59543;37.950;-122.338;2022-09-17T08:12:58;38.83;;;9.57;;
70010;SDS011;59543;37.950;-122.338;2022-09-17T08:15:25;53.58;;;9.77;;
70010;SDS011;59543;37.950;-122.338;2022-09-17T08:17:53;49.83;;;9.68;;
70010;SDS011;59543;37.950;-122.338;2022-09-17T08:20:19;37.55;;;9.13;;
70010;SDS011;59543;37.950;-122.338;2022-09-17T08:22:45;42.25;;;10.00;;
70010;SDS011;59543;37.950;-122.338;2022-09-17T08:25:12;46.08;;;8.82;;
70010;SDS011;59543;37.950;-122.338;2022-09-17T08:27:38;51.63;;;10.05;;
70010;SDS011;59543;37.950;-122.338;2022-09-17T08:30:05;53.28;;;9.52;;
70010;SDS011;59543;37.950;-122.338;2022-09-17T08:32:32;37.95;;;9.02;;
70010;SDS011;59543;37.950;-122.338;2022-09-17T08:34:59;40.67;;;8.82;;
70010;SDS011;59543;37.950;-122.338;2022-09-17T08:37:26;44.65;;;8.60;;
70010;SDS011;59543;37.950;-122.338;2022-09-17T08:39:56;43.05;;;9.55;;
70010;SDS011;59543;37.950;-122.338;2022-09-17T08:42:43;48.83;;;9.55;;
70010;SDS011;59543;37.950;-122.338;2022-09-17T08:45:18;46.25;;;10.00;;
70010;SDS011;59543;37.950;-122.338;2022-09-17T08:47:45;52.75;;;9.50;;
70010;SDS011;59543;37.950;-122.338;2022-09-17T08:50:13;45.33;;;9.35;;
70010;SDS011;59543;37.950;-122.338;2022-09-17T08:55:39;45.42;;;10.05;;
70010;SDS011;59543;37.950;-122.338;2022-09-17T09:01:13;46.42;;;9.70;;
70010;SDS011;59543;37.950;-122.338;2022-09-17T09:03:59;56.72;;;10.45;;
70010;SDS011;59543;37.950;-122.338;2022-09-17T09:06:48;45.00;;;9.85;;
70010;SDS011;59543;37.950;-122.338;2022-09-17T09:09:19;53.58;;;10.57;;
70010;SDS011;59543;37.950;-122.338;2022-09-17T09:11:51;53.38;;;11.00;;
70010;SDS011;59543;37.950;-122.338;2022-09-17T09:14:34;55.42;;;10.80;;
70010;SDS011;59543;37.950;-122.338;2022-09-17T09:17:09;49.70;;;10.07;;
70010;SDS011;59543;37.950;-122.338;2022-09-17T09:19:44;53.03;;;9.80;;
70010;SDS011;59543;37.950;-122.338;2022-09-17T09:27:46;52.75;;;10.52;;
70010;SDS011;59543;37.950;-122.338;2022-09-17T09:30:39;52.08;;;10.25;;
70010;SDS011;59543;37.950;-122.338;2022-09-17T09:33:17;43.10;;;8.80;;
70010;SDS011;59543;37.950;-122.338;2022-09-17T09:35:50;42.72;;;9.10;;
70010;SDS011;59543;37.950;-122.338;2022-09-17T09:40:56;55.95;;;10.18;;
70010;SDS011;59543;37.950;-122.338;2022-09-17T09:54:11;63.42;;;11.38;;
70010;SDS011;59543;37.950;-122.338;2022-09-17T09:56:59;53.70;;;9.75;;
70010;SDS011;59543;37.950;-122.338;2022-09-17T09:59:31;57.60;;;10.65;;
70010;SDS011;59543;37.950;-122.338;2022-09-17T10:02:00;47.55;;;9.70;;
70010;SDS011;59543;37.950;-122.338;2022-09-17T10:04:27;50.88;;;9.73;;
70010;SDS011;59543;37.950;-122.338;2022-09-17T10:07:05;41.88;;;9.23;;
70010;SDS011;59543;37.950;-122.338;2022-09-17T10:09:33;62.05;;;11.15;;
70010;SDS011;59543;37.950;-122.338;2022-09-17T10:14:38;52.00;;;10.18;;
70010;SDS011;59543;37.950;-122.338;2022-09-17T10:17:23;47.97;;;9.52;;
70010;SDS011;59543;37.950;-122.338;2022-09-17T10:22:40;43.53;;;9.77;;
70010;SDS011;59543;37.950;-122.338;2022-09-17T10:25:28;43.08;;;9.75;;
70010;SDS011;59543;37.950;-122.338;2022-09-17T10:27:57;51.85;;;9.43;;
70010;SDS011;59543;37.950;-122.338;2022-09-17T10:30:27;50.75;;;10.43;;
70010;SDS011;59543;37.950;-122.338;2022-09-17T10:36:02;44.47;;;9.68;;
70010;SDS011;59543;37.950;-122.338;2022-09-17T10:38:35;48.28;;;9.82;;
70010;SDS011;59543;37.950;-122.338;2022-09-17T10:43:39;48.80;;;9.70;;
70010;SDS011;59543;37.950;-122.338;2022-09-17T10:46:48;52.17;;;9.77;;
70010;SDS011;59543;37.950;-122.338;2022-09-17T10:49:05;49.63;;;9.65;;
70010;SDS011;59543;37.950;-122.338;2022-09-17T10:51:36;53.97;;;11.10;;
70010;SDS011;59543;37.950;-122.338;2022-09-17T10:54:25;48.90;;;10.15;;
70010;SDS011;59543;37.950;-122.338;2022-09-17T10:57:05;51.88;;;9.88;;
70010;SDS011;59543;37.950;-122.338;2022-09-17T11:14:05;44.75;;;9.50;;
70010;SDS011;59543;37.950;-122.338;2022-09-17T11:30:21;55.22;;;11.05;;
70010;SDS011;59543;37.950;-122.338;2022-09-17T11:35:40;39.42;;;8.85;;
70010;SDS011;59543;37.950;-122.338;2022-09-17T11:38:15;41.05;;;9.10;;
70010;SDS011;59543;37.950;-122.338;2022-09-17T11:40:56;50.80;;;9.95;;
70010;SDS011;59543;37.950;-122.338;2022-09-17T11:43:32;55.22;;;11.13;;
70010;SDS011;59543;37.950;-122.338;2022-09-17T11:51:32;51.47;;;9.15;;
70010;SDS011;59543;37.950;-122.338;2022-09-17T11:54:42;46.50;;;9.93;;
70010;SDS011;59543;37.950;-122.338;2022-09-17T12:00:02;35.88;;;8.52;;
70010;SDS011;59543;37.950;-122.338;2022-09-17T12:05:24;40.22;;;9.18;;
70010;SDS011;59543;37.950;-122.338;2022-09-17T12:08:13;56.03;;;9.02;;
70010;SDS011;59543;37.950;-122.338;2022-09-17T12:13:47;46.40;;;8.23;;
70010;SDS011;59543;37.950;-122.338;2022-09-17T12:18:46;45.90;;;8.20;;
70010;SDS011;59543;37.950;-122.338;2022-09-17T12:21:15;37.88;;;8.55;;
70010;SDS011;59543;37.950;-122.338;2022-09-17T12:29:32;41.22;;;8.50;;
70010;SDS011;59543;37.950;-122.338;2022-09-17T12:32:30;41.40;;;9.60;;
70010;SDS011;59543;37.950;-122.338;2022-09-17T12:35:06;37.78;;;9.07;;
70010;SDS011;59543;37.950;-122.338;2022-09-17T12:40:59;40.70;;;8.57;;
70010;SDS011;59543;37.950;-122.338;2022-09-17T13:00:27;39.65;;;9.02;;
70010;SDS011;59543;37.950;-122.338;2022-09-17T13:19:41;35.65;;;8.38;;
70010;SDS011;59543;37.950;-122.338;2022-09-17T13:22:18;56.40;;;9.93;;
70010;SDS011;59543;37.950;-122.338;2022-09-17T13:24:47;41.80;;;8.85;;
70010;SDS011;59543;37.950;-122.338;2022-09-17T13:27:30;41.22;;;8.75;;
70010;SDS011;59543;37.950;-122.338;2022-09-17T13:29:59;43.05;;;8.98;;
70010;SDS011;59543;37.950;-122.338;2022-09-17T13:37:43;37.67;;;7.95;;
70010;SDS011;59543;37.950;-122.338;2022-09-17T13:40:19;42.20;;;9.15;;
70010;SDS011;59543;37.950;-122.338;2022-09-17T13:42:57;40.88;;;9.02;;
70010;SDS011;59543;37.950;-122.338;2022-09-17T13:45:32;41.83;;;8.77;;
70010;SDS011;59543;37.950;-122.338;2022-09-17T13:50:49;36.70;;;8.05;;
70010;SDS011;59543;37.950;-122.338;2022-09-17T13:55:48;38.42;;;7.88;;
70010;SDS011;59543;37.950;-122.338;2022-09-17T13:58:23;38.00;;;8.23;;
70010;SDS011;59543;37.950;-122.338;2022-09-17T14:01:02;49.17;;;9.60;;
70010;SDS011;59543;37.950;-122.338;2022-09-17T14:21:44;36.97;;;8.57;;
70010;SDS011;59543;37.950;-122.338;2022-09-17T14:30:04;77.07;;;10.07;;
70010;SDS011;59543;37.950;-122.338;2022-09-17T14:35:16;35.97;;;8.13;;
70010;SDS011;59543;37.950;-122.338;2022-09-17T14:37:53;47.35;;;8.52;;
70010;SDS011;59543;37.950;-122.338;2022-09-17T14:40:23;41.60;;;7.97;;
70010;SDS011;59543;37.950;-122.338;2022-09-17T14:42:51;158.23;;;11.60;;
70010;SDS011;59543;37.950;-122.338;2022-09-17T14:45:24;357.25;;;22.20;;
70010;SDS011;59543;37.950;-122.338;2022-09-17T14:50:43;50.35;;;8.00;;
70010;SDS011;59543;37.950;-122.338;2022-09-17T14:53:16;45.25;;;8.50;;
70010;SDS011;59543;37.950;-122.338;2022-09-17T14:55:46;42.70;;;7.75;;
70010;SDS011;59543;37.950;-122.338;2022-09-17T14:58:23;32.33;;;7.10;;
70010;SDS011;59543;37.950;-122.338;2022-09-17T15:00:54;33.45;;;6.97;;
70010;SDS011;59543;37.950;-122.338;2022-09-17T15:03:21;33.78;;;7.25;;
70010;SDS011;59543;37.950;-122.338;2022-09-17T15:05:49;30.38;;;7.10;;
70010;SDS011;59543;37.950;-122.338;2022-09-17T15:08:17;37.63;;;7.57;;
70010;SDS011;59543;37.950;-122.338;2022-09-17T15:10:55;30.77;;;7.38;;
70010;SDS011;59543;37.950;-122.338;2022-09-17T15:13:30;30.70;;;7.25;;
70010;SDS011;59543;37.950;-122.338;2022-09-17T15:18:39;30.55;;;7.65;;
70010;SDS011;59543;37.950;-122.338;2022-09-17T15:21:17;35.03;;;7.30;;
70010;SDS011;59543;37.950;-122.338;2022-09-17T15:24:17;32.72;;;6.85;;
70010;SDS011;59543;37.950;-122.338;2022-09-17T15:26:51;37.20;;;7.05;;
70010;SDS011;59543;37.950;-122.338;2022-09-17T15:29:21;30.40;;;7.00;;
70010;SDS011;59543;37.950;-122.338;2022-09-17T15:31:51;28.95;;;6.55;;
70010;SDS011;59543;37.950;-122.338;2022-09-17T15:34:17;23.90;;;6.22;;
70010;SDS011;59543;37.950;-122.338;2022-09-17T15:37:02;31.17;;;6.78;;
70010;SDS011;59543;37.950;-122.338;2022-09-17T15:39:39;33.25;;;6.90;;
70010;SDS011;59543;37.950;-122.338;2022-09-17T15:45:25;24.38;;;6.25;;
70010;SDS011;59543;37.950;-122.338;2022-09-17T15:47:54;32.90;;;6.20;;
70010;SDS011;59543;37.950;-122.338;2022-09-17T15:50:23;33.10;;;7.53;;
70010;SDS011;59543;37.950;-122.338;2022-09-17T15:56:04;29.00;;;6.45;;
70010;SDS011;59543;37.950;-122.338;2022-09-17T15:58:36;34.85;;;7.43;;
70010;SDS011;59543;37.950;-122.338;2022-09-17T16:04:07;25.08;;;6.53;;
70010;SDS011;59543;37.950;-122.338;2022-09-17T16:06:52;31.13;;;6.32;;
70010;SDS011;59543;37.950;-122.338;2022-09-17T16:09:36;36.55;;;6.68;;
70010;SDS011;59543;37.950;-122.338;2022-09-17T16:12:12;35.50;;;6.18;;
70010;SDS011;59543;37.950;-122.338;2022-09-17T16:14:44;31.73;;;7.40;;
70010;SDS011;59543;37.950;-122.338;2022-09-17T16:17:53;39.25;;;7.70;;
70010;SDS011;59543;37.950;-122.338;2022-09-17T16:20:05;40.92;;;7.55;;
70010;SDS011;59543;37.950;-122.338;2022-09-17T16:22:34;49.38;;;7.72;;
70010;SDS011;59543;37.950;-122.338;2022-09-17T16:25:00;21.17;;;5.88;;
70010;SDS011;59543;37.950;-122.338;2022-09-17T16:27:27;29.73;;;6.78;;
70010;SDS011;59543;37.950;-122.338;2022-09-17T16:30:06;25.83;;;6.22;;
70010;SDS011;59543;37.950;-122.338;2022-09-17T16:32:34;29.88;;;6.60;;
70010;SDS011;59543;37.950;-122.338;2022-09-17T16:35:00;32.08;;;6.70;;
70010;SDS011;59543;37.950;-122.338;2022-09-17T16:37:26;23.55;;;6.15;;
70010;SDS011;59543;37.950;-122.338;2022-09-17T16:39:52;28.52;;;5.70;;
70010;SDS011;59543;37.950;-122.338;2022-09-17T16:42:19;36.38;;;7.07;;
70010;SDS011;59543;37.950;-122.338;2022-09-17T16:44:46;33.03;;;6.32;;
70010;SDS011;59543;37.950;-122.338;2022-09-17T16:47:12;30.70;;;7.15;;
70010;SDS011;59543;37.950;-122.338;2022-09-17T16:49:38;27.42;;;6.25;;
70010;SDS011;59543;37.950;-122.338;2022-09-17T16:52:04;27.52;;;6.55;;
70010;SDS011;59543;37.950;-122.338;2022-09-17T16:54:30;27.20;;;6.97;;
70010;SDS011;59543;37.950;-122.338;2022-09-17T16:56:56;26.23;;;6.65;;
70010;SDS011;59543;37.950;-122.338;2022-09-17T16:59:23;30.90;;;7.03;;
70010;SDS011;59543;37.950;-122.338;2022-09-17T17:01:49;27.85;;;6.80;;
70010;SDS011;59543;37.950;-122.338;2022-09-17T17:04:15;23.65;;;5.97;;
70010;SDS011;59543;37.950;-122.338;2022-09-17T17:06:42;22.70;;;6.55;;
70010;SDS011;59543;37.950;-122.338;2022-09-17T17:09:08;22.65;;;6.70;;
70010;SDS011;59543;37.950;-122.338;2022-09-17T17:11:36;23.38;;;6.38;;
70010;SDS011;59543;37.950;-122.338;2022-09-17T17:14:03;26.10;;;6.32;;
70010;SDS011;59543;37.950;-122.338;2022-09-17T17:16:30;20.73;;;5.63;;
70010;SDS011;59543;37.950;-122.338;2022-09-17T17:18:56;22.13;;;5.78;;
70010;SDS011;59543;37.950;-122.338;2022-09-17T17:21:22;23.13;;;6.03;;
70010;SDS011;59543;37.950;-122.338;2022-09-17T17:23:48;26.15;;;6.00;;
70010;SDS011;59543;37.950;-122.338;2022-09-17T17:26:15;22.42;;;5.50;;
70010;SDS011;59543;37.950;-122.338;2022-09-17T17:28:41;30.25;;;6.28;;
70010;SDS011;59543;37.950;-122.338;2022-09-17T17:31:07;17.33;;;5.43;;
70010;SDS011;59543;37.950;-122.338;2022-09-17T17:33:34;25.63;;;5.97;;
70010;SDS011;59543;37.950;-122.338;2022-09-17T17:36:01;21.00;;;5.80;;
70010;SDS011;59543;37.950;-122.338;2022-09-17T17:38:29;29.52;;;5.32;;
70010;SDS011;59543;37.950;-122.338;2022-09-17T17:41:08;21.40;;;5.47;;
70010;SDS011;59543;37.950;-122.338;2022-09-17T17:43:37;17.92;;;5.05;;
70010;SDS011;59543;37.950;-122.338;2022-09-17T17:46:05;19.15;;;5.35;;
70010;SDS011;59543;37.950;-122.338;2022-09-17T17:48:34;22.10;;;5.07;;
70010;SDS011;59543;37.950;-122.338;2022-09-17T17:51:04;20.63;;;4.93;;
70010;SDS011;59543;37.950;-122.338;2022-09-17T17:53:35;21.42;;;5.57;;
70010;SDS011;59543;37.950;-122.338;2022-09-17T17:56:05;19.25;;;4.60;;
70010;SDS011;59543;37.950;-122.338;2022-09-17T17:58:33;17.25;;;4.65;;
70010;SDS011;59543;37.950;-122.338;2022-09-17T18:01:08;25.80;;;5.55;;
70010;SDS011;59543;37.950;-122.338;2022-09-17T18:03:35;19.55;;;4.95;;
70010;SDS011;59543;37.950;-122.338;2022-09-17T18:06:03;13.00;;;4.18;;
70010;SDS011;59543;37.950;-122.338;2022-09-17T18:08:30;23.30;;;4.97;;